Time;durP1;ratioP1;P1;durP2;ratioP2;P2;SDS_P1;SDS_P2;PMS_P1;PMS_P2;Temp;Humidity;BMP_temperature;BMP_pressure;BME280_temperature;BME280_humidity;BME280_pressure;Samples;Min_cycle;Max_cycle;Signal;HPM_P1;HPM_P2
2022/08/16 00:02:00;;;;;;;14.90;13.60;;;;;;;17.68;87.08;92459.66;5038333;28;20188;-70
2022/08/16 00:04:26;;;;;;;16.03;14.43;;;;;;;17.91;84.80;92472.19;5036330;28;20949;-70
2022/08/16 00:06:51;;;;;;;14.63;13.43;;;;;;;17.73;85.96;92472.66;5038465;28;20231;-70
2022/08/16 00:09:17;;;;;;;15.03;13.73;;;;;;;17.80;85.34;92464.97;5038987;28;20227;-72
2022/08/16 00:11:45;;;;;;;15.73;14.23;;;;;;;17.79;85.85;92477.41;5040523;28;20191;-71
2022/08/16 00:14:14;;;;;;;14.83;13.63;;;;;;;17.72;86.25;92474.53;5037327;28;20233;-70
2022/08/16 00:16:40;;;;;;;15.50;13.93;;;;;;;17.35;87.17;92475.44;5041976;28;20260;-70
2022/08/16 00:19:05;;;;;;;17.00;13.97;;;;;;;17.57;86.98;92478.53;5037485;28;20231;-71
2022/08/16 00:21:31;;;;;;;15.63;14.33;;;;;;;17.42;88.00;92473.81;5040495;28;21057;-71
2022/08/16 00:23:56;;;;;;;15.43;14.03;;;;;;;17.39;86.98;92452.56;5037016;28;20246;-70
2022/08/16 00:26:23;;;;;;;15.57;14.10;;;;;;;17.49;86.63;92474.09;5038766;28;20238;-70
2022/08/16 00:28:48;;;;;;;15.33;14.00;;;;;;;17.56;86.90;92479.63;5039344;28;20226;-71
2022/08/16 00:31:13;;;;;;;14.67;13.37;;;;;;;17.56;86.39;92468.28;5041761;28;20175;-70
2022/08/16 00:33:39;;;;;;;15.00;13.60;;;;;;;17.46;86.27;92466.81;5037662;28;20219;-70
2022/08/16 00:36:04;;;;;;;14.50;13.23;;;;;;;17.49;86.34;92487.28;5038040;28;20214;-71
2022/08/16 00:38:30;;;;;;;14.87;13.53;;;;;;;17.53;86.63;92479.50;5039202;28;20184;-71
2022/08/16 00:40:56;;;;;;;15.13;13.83;;;;;;;17.54;86.56;92484.47;5036531;28;20195;-70
2022/08/16 00:43:28;;;;;;;15.07;13.67;;;;;;;17.59;86.05;92476.34;5040007;28;20187;-73
2022/08/16 00:46:02;;;;;;;15.63;14.00;;;;;;;17.56;86.46;92482.28;5037186;28;20219;-70
2022/08/16 00:48:28;;;;;;;14.60;13.27;;;;;;;17.49;87.28;92491.81;5039732;28;20203;-71
2022/08/16 00:50:54;;;;;;;15.50;13.97;;;;;;;17.50;86.90;92467.75;5042541;28;21638;-71
2022/08/16 00:53:19;;;;;;;14.13;12.93;;;;;;;17.59;87.27;92486.91;5038790;28;20223;-70
2022/08/16 00:55:49;;;;;;;15.30;13.80;;;;;;;17.65;87.44;92489.34;5042151;28;20215;-71
2022/08/16 00:58:16;;;;;;;15.97;14.47;;;;;;;17.48;88.06;92480.47;5039022;28;20272;-71
2022/08/16 01:00:45;;;;;;;16.67;15.17;;;;;;;17.60;88.46;92493.72;5037115;28;20230;-70
2022/08/16 01:03:14;;;;;;;17.00;15.27;;;;;;;17.48;89.27;92504.25;5039133;28;20187;-70
2022/08/16 01:05:40;;;;;;;16.87;15.33;;;;;;;17.45;89.38;92490.91;5041576;28;20222;-71
2022/08/16 01:08:08;;;;;;;16.33;14.93;;;;;;;17.64;88.46;92496.50;5037411;28;20302;-70
2022/08/16 01:10:34;;;;;;;15.63;14.27;;;;;;;17.67;87.93;92508.28;5037360;28;20246;-70
2022/08/16 01:13:05;;;;;;;20.10;15.07;;;;;;;17.39;88.93;92466.56;5036761;28;20207;-69
2022/08/16 01:15:32;;;;;;;15.43;14.03;;;;;;;17.69;88.47;92500.81;5036891;28;20207;-71
2022/08/16 01:17:59;;;;;;;15.60;14.20;;;;;;;17.69;88.72;92506.88;5037638;28;20211;-70
2022/08/16 01:20:28;;;;;;;16.63;15.03;;;;;;;17.82;87.66;92513.72;5039400;28;20226;-73
2022/08/16 01:23:06;;;;;;;14.77;13.23;;;;;;;17.69;87.49;92514.78;5036998;28;20183;-71
2022/08/16 01:25:36;;;;;;;16.33;14.83;;;;;;;17.71;87.66;92517.88;5036963;28;20243;-71
2022/08/16 01:28:06;;;;;;;15.70;14.33;;;;;;;17.55;88.14;92480.75;5036809;28;20195;-72
2022/08/16 01:30:36;;;;;;;15.27;13.83;;;;;;;17.80;88.35;92517.78;5034619;28;20254;-71
2022/08/16 01:33:05;;;;;;;16.20;14.80;;;;;;;17.74;89.14;92524.38;5035604;28;20222;-72
2022/08/16 01:35:51;;;;;;;16.10;14.77;;;;;;;17.74;89.18;92524.38;5035696;28;20214;-71
2022/08/16 01:38:18;;;;;;;16.93;15.43;;;;;;;17.63;89.16;92529.28;5037129;28;20214;-71
2022/08/16 01:40:44;;;;;;;16.10;14.60;;;;;;;17.59;89.26;92512.53;5037360;28;20215;-71
2022/08/16 01:43:09;;;;;;;17.50;15.90;;;;;;;17.67;89.41;92524.88;5036419;28;20271;-70
2022/08/16 01:45:35;;;;;;;16.37;14.87;;;;;;;17.65;89.64;92521.78;5036241;28;20289;-70
2022/08/16 01:48:01;;;;;;;16.90;15.47;;;;;;;17.66;89.81;92517.28;5036834;28;20220;-70
2022/08/16 01:50:27;;;;;;;17.17;15.47;;;;;;;17.57;90.15;92507.56;5035067;28;20206;-71
2022/08/16 01:52:53;;;;;;;16.77;15.27;;;;;;;17.74;90.25;92521.75;5037329;28;20222;-70
2022/08/16 01:55:22;;;;;;;17.77;16.07;;;;;;;17.70;90.69;92507.66;5038138;28;20298;-70
2022/08/16 01:57:48;;;;;;;16.23;14.77;;;;;;;17.81;90.13;92506.13;5035333;28;20183;-70
2022/08/16 02:00:14;;;;;;;16.93;15.33;;;;;;;17.93;89.50;92522.03;5038856;28;20224;-70
2022/08/16 02:02:41;;;;;;;16.60;15.07;;;;;;;17.95;89.78;92517.97;5036668;28;20259;-70
2022/08/16 02:05:07;;;;;;;16.43;14.93;;;;;;;17.89;90.28;92529.84;5039743;28;20250;-70
2022/08/16 02:07:32;;;;;;;16.37;14.97;;;;;;;17.70;90.58;92507.66;5037802;28;20249;-70
2022/08/16 02:09:58;;;;;;;16.00;14.47;;;;;;;17.94;90.06;92528.84;5039323;28;20227;-70
2022/08/16 02:12:24;;;;;;;17.30;15.67;;;;;;;17.98;89.93;92532.41;5036078;28;20192;-70
2022/08/16 02:14:49;;;;;;;16.60;15.00;;;;;;;17.92;89.67;92531.81;5037069;28;20235;-70
2022/08/16 02:17:15;;;;;;;15.93;14.40;;;;;;;17.97;90.25;92544.06;5034420;28;20191;-70
2022/08/16 02:19:44;;;;;;;17.40;15.70;;;;;;;17.95;89.66;92556.81;5039083;28;20252;-70
2022/08/16 02:22:13;;;;;;;18.13;16.23;;;;;;;17.94;88.41;92536.78;5037133;28;20196;-70
2022/08/16 02:24:40;;;;;;;17.40;15.70;;;;;;;17.99;89.34;92570.94;5040944;28;20227;-70
2022/08/16 02:27:06;;;;;;;16.60;15.10;;;;;;;18.03;89.84;92590.31;5036353;28;20202;-70
2022/08/16 02:29:32;;;;;;;17.40;15.77;;;;;;;18.17;88.73;92617.22;5035401;28;20235;-69
2022/08/16 02:31:58;;;;;;;19.47;17.50;;;;;;;18.16;89.14;92615.69;5038938;28;20187;-72
2022/08/16 02:34:24;;;;;;;19.13;17.20;;;;;;;18.20;89.01;92606.00;5037631;28;20291;-70
2022/08/16 02:36:49;;;;;;;18.53;16.63;;;;;;;18.16;90.13;92616.47;5037559;28;20192;-71
2022/08/16 02:39:15;;;;;;;19.30;16.47;;;;;;;18.09;90.30;92603.00;5036315;28;20250;-70
2022/08/16 02:41:43;;;;;;;20.07;17.13;;;;;;;18.12;90.76;92604.22;5038328;28;20219;-70
2022/08/16 02:44:11;;;;;;;20.07;17.93;;;;;;;18.18;90.46;92603.69;5035812;28;20307;-69
2022/08/16 02:46:36;;;;;;;18.60;16.77;;;;;;;18.14;90.45;92589.59;5037022;28;20179;-71
2022/08/16 02:49:03;;;;;;;19.03;17.13;;;;;;;18.25;90.66;92579.38;5038206;28;20374;-69
2022/08/16 02:51:29;;;;;;;19.03;17.23;;;;;;;17.99;92.38;92574.34;5039186;28;20188;-70
2022/08/16 02:53:54;;;;;;;18.30;16.60;;;;;;;18.17;90.81;92588.16;5036646;28;20224;-70
2022/08/16 02:56:20;;;;;;;17.37;15.77;;;;;;;18.21;89.66;92581.91;5038306;28;20185;-70
2022/08/16 02:58:48;;;;;;;19.97;17.20;;;;;;;18.12;90.91;92568.00;5037612;28;20239;-70
2022/08/16 03:01:17;;;;;;;17.77;16.07;;;;;;;18.11;91.29;92576.25;5037391;28;20203;-70
2022/08/16 03:03:42;;;;;;;17.13;15.53;;;;;;;18.16;90.69;92574.19;5039336;28;20256;-70
2022/08/16 03:06:08;;;;;;;17.60;16.00;;;;;;;18.04;90.95;92586.59;5037896;28;20188;-68
2022/08/16 03:08:33;;;;;;;17.73;16.13;;;;;;;18.03;90.17;92577.09;5034683;28;20196;-69
2022/08/16 03:10:59;;;;;;;17.03;15.43;;;;;;;17.95;91.56;92583.22;5035508;28;20497;-69
2022/08/16 03:13:24;;;;;;;18.27;15.63;;;;;;;18.05;89.53;92570.41;5036873;28;20235;-69
2022/08/16 03:15:50;;;;;;;17.67;16.03;;;;;;;18.16;89.54;92562.84;5039532;28;20213;-70
2022/08/16 03:18:15;;;;;;;17.70;15.97;;;;;;;18.08;90.37;92571.63;5039937;28;21033;-68
2022/08/16 03:20:41;;;;;;;17.50;15.73;;;;;;;17.99;90.74;92557.72;5039282;28;20318;-69
2022/08/16 03:23:07;;;;;;;16.77;15.37;;;;;;;17.93;91.74;92561.66;5036450;28;20246;-69
2022/08/16 03:25:34;;;;;;;18.93;17.13;;;;;;;17.78;92.79;92554.31;5036439;28;20240;-68
2022/08/16 03:27:59;;;;;;;18.03;16.23;;;;;;;17.53;93.54;92559.47;5038205;28;20188;-69
2022/08/16 03:30:27;;;;;;;16.80;15.30;;;;;;;17.66;93.30;92557.69;5034342;28;20232;-69
2022/08/16 03:32:53;;;;;;;17.40;15.60;;;;;;;17.62;93.03;92556.75;5036770;28;20243;-67
2022/08/16 03:35:26;;;;;;;17.17;15.53;;;;;;;17.63;93.04;92555.69;5037584;28;20236;-69
2022/08/16 03:37:55;;;;;;;16.37;15.03;;;;;;;17.67;92.90;92558.44;5037949;28;20244;-67
2022/08/16 03:40:21;;;;;;;16.60;15.07;;;;;;;17.61;93.09;92563.16;5033477;28;20214;-70
2022/08/16 03:42:46;;;;;;;17.27;14.87;;;;;;;17.51;92.97;92564.31;5037593;28;20248;-69
2022/08/16 03:45:13;;;;;;;16.47;14.77;;;;;;;17.44;92.65;92537.66;5032161;28;20223;-69
2022/08/16 03:47:39;;;;;;;15.60;14.20;;;;;;;17.67;92.00;92553.16;5036294;28;20218;-69
2022/08/16 03:50:05;;;;;;;17.87;15.30;;;;;;;17.77;91.73;92566.75;5034995;28;20234;-69
2022/08/16 03:52:31;;;;;;;17.77;15.40;;;;;;;17.87;91.03;92560.31;5040386;28;20231;-68
2022/08/16 03:54:56;;;;;;;16.43;14.80;;;;;;;17.72;90.98;92548.47;5041137;28;20251;-69
2022/08/16 03:57:21;;;;;;;17.37;15.57;;;;;;;17.76;91.52;92559.16;5039717;28;20189;-68
2022/08/16 03:59:47;;;;;;;18.43;15.23;;;;;;;17.78;91.41;92556.94;5041581;28;20233;-68
2022/08/16 04:02:12;;;;;;;15.83;14.33;;;;;;;17.74;91.43;92554.22;5039466;28;20258;-69
2022/08/16 04:04:39;;;;;;;17.53;15.83;;;;;;;17.65;91.80;92542.16;5038716;28;20222;-69
2022/08/16 04:07:05;;;;;;;17.27;15.57;;;;;;;17.87;91.37;92557.69;5039802;28;20229;-69
2022/08/16 04:09:32;;;;;;;17.63;15.93;;;;;;;17.90;91.25;92555.13;5038813;28;20234;-70
2022/08/16 04:11:58;;;;;;;16.53;14.90;;;;;;;17.98;90.86;92549.00;5039440;28;20211;-71
2022/08/16 04:14:24;;;;;;;16.73;15.03;;;;;;;17.98;90.57;92546.38;5035160;28;20237;-70
2022/08/16 04:16:49;;;;;;;17.03;15.33;;;;;;;17.84;91.67;92563.59;5037024;28;20192;-69
2022/08/16 04:19:15;;;;;;;20.30;15.80;;;;;;;17.88;91.60;92564.50;5039983;28;20242;-69
2022/08/16 04:21:40;;;;;;;17.30;15.33;;;;;;;17.91;91.77;92562.00;5039417;28;20196;-70
2022/08/16 04:24:06;;;;;;;17.93;16.23;;;;;;;17.97;91.58;92557.25;5037860;28;20296;-70
2022/08/16 04:26:31;;;;;;;17.43;15.20;;;;;;;18.03;91.23;92554.09;5037175;28;20245;-70
2022/08/16 04:28:59;;;;;;;17.73;15.93;;;;;;;18.08;90.93;92545.19;5038715;28;20251;-69
2022/08/16 04:31:24;;;;;;;16.27;14.77;;;;;;;18.10;90.87;92561.50;5039452;28;20192;-70
2022/08/16 04:33:51;;;;;;;16.77;15.10;;;;;;;18.18;90.52;92558.00;5041865;28;20235;-73
2022/08/16 04:36:18;;;;;;;17.17;15.53;;;;;;;18.28;90.64;92555.72;5038168;28;20182;-70
2022/08/16 04:38:44;;;;;;;15.50;14.00;;;;;;;18.39;90.12;92554.25;5038793;28;20262;-74
2022/08/16 04:41:09;;;;;;;20.03;15.40;;;;;;;18.68;88.51;92563.88;5039750;28;20221;-71
2022/08/16 04:43:37;;;;;;;17.03;15.33;;;;;;;18.82;87.16;92548.44;5036975;28;20181;-70
2022/08/16 04:46:03;;;;;;;16.70;15.10;;;;;;;19.01;85.53;92540.75;5039800;28;20223;-72
2022/08/16 04:48:28;;;;;;;17.00;14.93;;;;;;;19.13;85.41;92554.75;5039675;28;20183;-75
2022/08/16 04:50:54;;;;;;;17.03;14.97;;;;;;;19.01;85.63;92525.66;5037816;28;20200;-75
2022/08/16 04:53:19;;;;;;;15.63;14.17;;;;;;;19.15;85.47;92549.13;5039528;28;20212;-71
2022/08/16 04:55:45;;;;;;;14.70;13.40;;;;;;;19.08;84.45;92528.50;5042287;28;20251;-72
2022/08/16 04:58:10;;;;;;;17.40;14.60;;;;;;;18.95;85.62;92532.28;5038471;28;20260;-71
2022/08/16 05:00:36;;;;;;;17.30;15.57;;;;;;;19.18;84.95;92545.81;5037307;28;20272;-72
2022/08/16 05:03:08;;;;;;;16.80;15.20;;;;;;;19.59;81.86;92564.13;5034857;28;20200;-70
2022/08/16 05:05:37;;;;;;;16.13;14.43;;;;;;;19.57;81.81;92574.25;5037205;28;20225;-72
2022/08/16 05:08:03;;;;;;;15.53;13.87;;;;;;;19.80;80.52;92577.22;5040081;28;20227;-72
2022/08/16 05:10:29;;;;;;;16.90;14.20;;;;;;;20.01;80.47;92588.41;5039773;28;20267;-71
2022/08/16 05:12:55;;;;;;;18.23;14.60;;;;;;;19.85;80.49;92580.38;5037886;28;20212;-71
2022/08/16 05:15:22;;;;;;;17.23;15.47;;;;;;;20.12;80.45;92590.25;5037145;28;20253;-71
2022/08/16 05:17:47;;;;;;;16.27;14.57;;;;;;;20.34;79.91;92581.75;5036997;28;20203;-71
2022/08/16 05:20:13;;;;;;;18.30;16.42;;;;;;;20.29;79.89;92574.06;5036773;28;20239;-70
2022/08/16 05:22:39;;;;;;;19.40;16.10;;;;;;;20.37;79.80;92575.03;5037573;28;20193;-71
2022/08/16 05:25:06;;;;;;;19.20;15.70;;;;;;;20.47;78.57;92585.13;5039594;28;20258;-72
2022/08/16 05:27:32;;;;;;;19.57;16.23;;;;;;;20.43;78.12;92578.97;5037705;28;20256;-71
2022/08/16 05:29:57;;;;;;;19.77;16.75;;;;;;;20.49;78.29;92575.75;5033932;28;20224;-71
2022/08/16 05:32:23;;;;;;;18.00;15.97;;;;;;;20.48;79.76;92584.03;5034679;28;20192;-71
2022/08/16 05:34:48;;;;;;;18.73;16.73;;;;;;;20.52;79.41;92574.28;5035306;28;20229;-71
2022/08/16 05:37:13;;;;;;;19.88;17.70;;;;;;;20.61;80.43;92586.28;5037165;28;20245;-71
2022/08/16 05:39:39;;;;;;;21.40;16.63;;;;;;;21.01;78.64;92572.13;5038204;28;20236;-71
2022/08/16 05:42:04;;;;;;;25.13;18.67;;;;;;;20.58;81.85;92563.09;5040307;28;20201;-71
2022/08/16 05:44:30;;;;;;;23.67;19.20;;;;;;;20.82;79.24;92554.22;5038235;28;20252;-71
2022/08/16 05:46:58;;;;;;;20.33;18.23;;;;;;;20.77;81.01;92583.66;5036026;28;20204;-70
2022/08/16 05:49:28;;;;;;;19.48;17.48;;;;;;;21.30;79.04;92590.28;5041523;28;20284;-71
2022/08/16 05:51:54;;;;;;;19.48;17.40;;;;;;;21.63;76.84;92588.78;5037242;28;20217;-72
2022/08/16 05:54:21;;;;;;;18.05;16.27;;;;;;;22.06;72.66;92593.91;5036130;28;20233;-70
2022/08/16 05:56:46;;;;;;;19.77;16.50;;;;;;;25.70;61.62;92602.13;5038866;28;20193;-70
2022/08/16 05:59:14;;;;;;;17.58;15.77;;;;;;;27.11;56.12;92597.44;5037057;28;20226;-69
2022/08/16 06:01:40;;;;;;;16.67;15.07;;;;;;;26.68;56.23;92593.88;5039549;28;20195;-72
2022/08/16 06:04:07;;;;;;;18.15;16.23;;;;;;;27.65;53.31;92602.47;5034100;28;20260;-70
2022/08/16 06:06:32;;;;;;;17.55;15.82;;;;;;;27.81;53.74;92610.91;5038864;28;20218;-69
2022/08/16 06:08:58;;;;;;;17.73;15.73;;;;;;;31.94;42.00;92618.69;5038954;28;20241;-72
2022/08/16 06:11:23;;;;;;;16.13;14.32;;;;;;;31.17;42.29;92601.69;5037347;28;20198;-70
2022/08/16 06:13:48;;;;;;;14.40;13.10;;;;;;;33.64;37.58;92620.41;5035111;28;20226;-72
2022/08/16 06:16:14;;;;;;;19.67;17.23;;;;;;;34.29;35.34;92613.78;5033400;28;20193;-70
2022/08/16 06:18:43;;;;;;;20.40;18.30;;;;;;;34.27;34.94;92618.91;5032057;28;20201;-70
2022/08/16 06:21:09;;;;;;;13.13;11.82;;;;;;;32.41;37.47;92609.38;5035371;28;20197;-70
2022/08/16 06:23:34;;;;;;;15.40;13.82;;;;;;;29.34;44.14;92611.56;5035110;28;20253;-70
2022/08/16 06:26:00;;;;;;;15.30;13.80;;;;;;;25.38;55.79;92593.09;5032962;28;20186;-70
2022/08/16 06:28:25;;;;;;;17.67;14.57;;;;;;;23.70;63.40;92578.56;5034799;28;20955;-70
2022/08/16 06:30:51;;;;;;;17.50;15.75;;;;;;;24.06;62.63;92579.81;5037851;28;20198;-70
2022/08/16 06:33:18;;;;;;;17.30;15.60;;;;;;;22.76;67.10;92586.53;5037658;28;20254;-70
2022/08/16 06:35:43;;;;;;;15.90;14.27;;;;;;;22.99;67.46;92581.97;5037475;28;20267;-69
2022/08/16 06:38:09;;;;;;;16.58;15.07;;;;;;;22.75;68.64;92578.88;5036511;28;20200;-70
2022/08/16 06:40:34;;;;;;;17.63;15.82;;;;;;;21.89;71.22;92574.91;5033593;28;20224;-70
2022/08/16 06:43:00;;;;;;;18.23;16.27;;;;;;;22.39;71.11;92576.66;5037356;28;20280;-70
2022/08/16 06:45:26;;;;;;;16.88;15.10;;;;;;;22.46;70.98;92582.13;5037324;28;20230;-70
2022/08/16 06:47:51;;;;;;;17.85;15.98;;;;;;;22.95;68.16;92573.16;5035379;28;20252;-70
2022/08/16 06:50:18;;;;;;;16.52;15.00;;;;;;;22.89;68.72;92558.63;5036980;28;20249;-70
2022/08/16 06:52:44;;;;;;;18.67;16.25;;;;;;;23.05;68.12;92575.22;5036531;28;20232;-69
2022/08/16 06:55:12;;;;;;;16.25;14.75;;;;;;;23.24;66.83;92579.72;5035877;28;20249;-70
2022/08/16 06:57:37;;;;;;;16.23;14.82;;;;;;;23.19;65.23;92569.38;5034145;28;20184;-69
2022/08/16 07:00:14;;;;;;;16.92;15.20;;;;;;;23.00;66.35;92569.44;5036592;28;20249;-71
2022/08/16 07:02:40;;;;;;;16.10;14.60;;;;;;;23.04;66.61;92571.03;5037000;28;20239;-70
2022/08/16 07:05:07;;;;;;;16.67;15.05;;;;;;;23.21;66.70;92565.22;5037216;28;20225;-70
2022/08/16 07:07:33;;;;;;;16.85;14.65;;;;;;;23.05;65.57;92566.47;5038085;28;20222;-70
2022/08/16 07:09:59;;;;;;;17.08;15.38;;;;;;;22.88;65.51;92566.97;5036240;28;20244;-70
2022/08/16 07:12:25;;;;;;;16.42;14.85;;;;;;;22.79;67.12;92558.41;5034825;28;20216;-69
2022/08/16 07:14:50;;;;;;;16.15;14.65;;;;;;;22.92;67.70;92568.56;5033248;28;20236;-71
2022/08/16 07:17:18;;;;;;;17.70;14.68;;;;;;;23.19;66.72;92562.13;5032071;28;20200;-72
2022/08/16 07:19:43;;;;;;;19.38;14.10;;;;;;;23.38;64.75;92554.09;5038452;28;20240;-70
2022/08/16 07:22:09;;;;;;;16.20;14.70;;;;;;;23.24;65.32;92547.75;5036384;28;20208;-70
2022/08/16 07:24:34;;;;;;;16.17;14.77;;;;;;;23.60;65.25;92547.16;5038604;28;20233;-71
2022/08/16 07:27:01;;;;;;;17.60;15.02;;;;;;;23.75;64.73;92555.00;5040215;28;20277;-70
2022/08/16 07:29:28;;;;;;;17.75;15.85;;;;;;;23.88;62.83;92544.88;5044666;28;20236;-71
2022/08/16 07:31:53;;;;;;;18.60;16.70;;;;;;;23.57;63.19;92546.00;5035023;28;21177;-69
2022/08/16 07:34:19;;;;;;;16.92;15.32;;;;;;;23.30;63.85;92552.44;5037031;28;20235;-69
2022/08/16 07:36:44;;;;;;;15.40;13.82;;;;;;;23.78;63.42;92562.28;5041124;28;20189;-71
2022/08/16 07:39:11;;;;;;;14.23;13.00;;;;;;;23.93;61.93;92552.56;5039893;28;20240;-69
2022/08/16 07:41:36;;;;;;;17.55;15.77;;;;;;;23.80;62.12;92553.16;5038451;28;20186;-70
2022/08/16 07:44:02;;;;;;;14.75;13.25;;;;;;;24.03;62.06;92543.22;5036555;28;20300;-69
2022/08/16 07:46:28;;;;;;;15.02;13.60;;;;;;;24.20;61.48;92553.31;5044903;28;20169;-69
2022/08/16 07:48:53;;;;;;;16.40;14.43;;;;;;;24.40;61.88;92555.47;5040657;28;20303;-67
2022/08/16 07:51:19;;;;;;;15.75;14.10;;;;;;;24.36;60.85;92551.22;5040091;28;20201;-67
2022/08/16 07:53:50;;;;;;;14.43;13.20;;;;;;;24.43;62.57;92557.41;5039746;28;20239;-68
2022/08/16 07:56:15;;;;;;;15.82;14.38;;;;;;;24.63;59.96;92558.00;5041705;28;20196;-69
2022/08/16 07:58:41;;;;;;;14.85;13.35;;;;;;;24.54;59.23;92558.28;5038034;28;20321;-69
2022/08/16 08:01:06;;;;;;;14.98;13.48;;;;;;;24.38;60.04;92562.28;5040205;28;20192;-69
2022/08/16 08:03:32;;;;;;;16.90;15.07;;;;;;;24.39;60.69;92571.84;5036886;28;20219;-70
2022/08/16 08:05:59;;;;;;;16.23;14.63;;;;;;;24.43;60.62;92568.09;5036812;28;20182;-70
2022/08/16 08:08:24;;;;;;;17.55;15.85;;;;;;;24.34;60.92;92569.50;5041317;28;20332;-69
2022/08/16 08:10:50;;;;;;;16.40;14.85;;;;;;;24.53;61.13;92577.34;5037851;28;20189;-70
2022/08/16 08:13:15;;;;;;;16.48;14.82;;;;;;;24.59;60.31;92573.22;5038812;28;20225;-69
2022/08/16 08:15:41;;;;;;;15.55;13.80;;;;;;;24.39;61.46;92575.28;5037541;28;20228;-68
2022/08/16 08:18:06;;;;;;;16.02;14.45;;;;;;;24.29;62.13;92573.25;5069148;28;20196;-69
2022/08/16 08:20:32;;;;;;;17.30;15.55;;;;;;;24.90;60.12;92584.22;5037376;28;20222;-68
2022/08/16 08:22:58;;;;;;;15.95;14.50;;;;;;;24.63;59.59;92584.69;5036626;28;21041;-68
2022/08/16 08:25:24;;;;;;;17.38;15.73;;;;;;;24.84;60.24;92568.94;5035848;28;20236;-68
2022/08/16 08:27:50;;;;;;;15.63;14.18;;;;;;;24.81;61.58;92585.69;5035622;28;20197;-68
2022/08/16 08:30:15;;;;;;;18.55;14.57;;;;;;;24.57;61.60;92584.25;5040689;28;20363;-68
2022/08/16 08:32:41;;;;;;;17.35;15.52;;;;;;;24.93;59.46;92578.19;5034223;28;20225;-69
2022/08/16 08:35:08;;;;;;;20.98;15.27;;;;;;;24.71;60.66;92586.34;5036251;28;20225;-68
2022/08/16 08:37:36;;;;;;;16.98;14.52;;;;;;;25.12;60.52;92596.66;5034310;28;20202;-68
2022/08/16 08:40:06;;;;;;;17.77;14.32;;;;;;;24.83;60.72;92591.41;5037506;28;20233;-69
2022/08/16 08:42:31;;;;;;;16.65;14.88;;;;;;;25.10;59.56;92587.50;5035827;28;20186;-68
2022/08/16 08:44:57;;;;;;;16.15;14.45;;;;;;;25.13;60.74;92589.41;5038359;28;20253;-67
2022/08/16 08:47:22;;;;;;;16.42;14.40;;;;;;;25.26;58.46;92596.03;5037906;28;20200;-67
2022/08/16 08:49:48;;;;;;;16.52;15.00;;;;;;;25.22;59.72;92595.22;5036557;28;20230;-69
2022/08/16 08:52:14;;;;;;;16.05;14.25;;;;;;;25.42;57.72;92593.88;5037007;28;20233;-68
2022/08/16 08:54:39;;;;;;;16.35;14.25;;;;;;;25.38;59.11;92597.69;5039113;28;20241;-68
2022/08/16 08:57:04;;;;;;;15.10;13.70;;;;;;;25.61;57.46;92588.31;5038497;28;20191;-68
2022/08/16 08:59:31;;;;;;;16.20;14.50;;;;;;;25.60;57.85;92588.69;5034934;28;20312;-69
2022/08/16 09:01:57;;;;;;;14.95;12.70;;;;;;;25.50;57.34;92578.66;5033742;28;20914;-68
2022/08/16 09:04:24;;;;;;;14.27;12.98;;;;;;;25.82;57.33;92588.44;5034673;28;20245;-69
2022/08/16 09:06:52;;;;;;;17.00;15.25;;;;;;;25.50;56.95;92590.13;5037644;28;20225;-69
2022/08/16 09:09:17;;;;;;;15.77;14.15;;;;;;;25.46;56.65;92572.53;5034423;28;20235;-70
2022/08/16 09:11:44;;;;;;;13.93;12.82;;;;;;;25.12;58.16;92572.59;5038941;28;20217;-69
2022/08/16 09:14:09;;;;;;;14.30;13.02;;;;;;;25.47;58.19;92569.50;5039090;28;20234;-70
2022/08/16 09:16:35;;;;;;;14.30;13.00;;;;;;;25.75;57.91;92585.72;5037193;28;20191;-70
2022/08/16 09:19:00;;;;;;;14.60;13.32;;;;;;;26.12;54.79;92585.59;5037536;28;20218;-68
2022/08/16 09:21:26;;;;;;;13.68;12.30;;;;;;;26.30;54.32;92592.59;5041452;28;20262;-70
2022/08/16 09:23:51;;;;;;;11.27;10.38;;;;;;;26.44;46.87;92587.28;5038382;28;20349;-71
2022/08/16 09:26:17;;;;;;;12.75;11.75;;;;;;;26.49;46.69;92589.59;5039568;28;20203;-70
2022/08/16 09:28:44;;;;;;;11.00;10.30;;;;;;;26.72;45.81;92574.00;5039521;28;20280;-70
2022/08/16 09:31:11;;;;;;;11.95;11.05;;;;;;;27.21;45.55;92578.69;5040446;28;20209;-71
2022/08/16 09:33:36;;;;;;;11.88;10.73;;;;;;;27.27;47.16;92576.44;5034605;28;20218;-70
2022/08/16 09:36:02;;;;;;;11.82;10.82;;;;;;;27.32;46.08;92574.13;5042103;28;20194;-71
2022/08/16 09:38:28;;;;;;;12.45;11.55;;;;;;;26.90;46.98;92574.03;5035726;28;20191;-70
2022/08/16 09:40:55;;;;;;;11.52;10.57;;;;;;;26.83;43.78;92567.91;5039762;28;20198;-71
2022/08/16 09:43:22;;;;;;;11.27;10.48;;;;;;;27.18;43.87;92570.63;5036663;28;20195;-70
2022/08/16 09:45:48;;;;;;;12.15;11.00;;;;;;;27.42;44.13;92562.66;5037932;28;20273;-69
2022/08/16 09:48:14;;;;;;;11.70;10.48;;;;;;;27.59;42.81;92567.22;5036648;28;20194;-68
2022/08/16 09:50:42;;;;;;;10.75;9.95;;;;;;;27.37;41.88;92578.34;5040268;28;20237;-69
2022/08/16 09:53:12;;;;;;;9.93;9.30;;;;;;;27.46;41.38;92576.03;5036323;28;20210;-68
2022/08/16 09:55:38;;;;;;;10.85;10.05;;;;;;;27.28;43.19;92575.28;5035838;28;20289;-71
2022/08/16 09:58:04;;;;;;;10.98;9.98;;;;;;;27.53;43.65;92570.69;5037334;28;20192;-68
2022/08/16 10:00:29;;;;;;;11.80;10.90;;;;;;;27.70;43.19;92570.69;5036929;28;20214;-69
2022/08/16 10:02:54;;;;;;;10.82;10.02;;;;;;;27.45;43.69;92582.56;5039960;28;20202;-69
2022/08/16 10:05:20;;;;;;;11.18;10.10;;;;;;;27.38;41.97;92575.28;5034694;28;20207;-69
2022/08/16 10:07:50;;;;;;;11.60;10.52;;;;;;;27.29;43.34;92580.25;5035186;28;20238;-69
2022/08/16 10:10:20;;;;;;;11.73;10.73;;;;;;;27.23;42.17;92565.66;5037804;28;20228;-68
2022/08/16 10:15:31;;;;;;;12.43;11.25;;;;;;;27.72;41.10;92572.97;5035618;28;20221;-69
2022/08/16 10:17:56;;;;;;;12.35;11.30;;;;;;;27.76;41.06;92576.41;5039067;28;20872;-68
2022/08/16 10:20:24;;;;;;;12.52;11.32;;;;;;;27.57;40.28;92568.75;5036192;28;20214;-69
2022/08/16 10:22:50;;;;;;;11.88;10.73;;;;;;;27.87;39.00;92571.78;5038994;28;20198;-69
2022/08/16 10:25:17;;;;;;;10.77;9.98;;;;;;;27.96;40.75;92570.28;5034532;28;20286;-68
2022/08/16 10:27:45;;;;;;;11.85;10.63;;;;;;;27.62;39.47;92550.38;5035853;28;20182;-68
2022/08/16 10:30:10;;;;;;;12.02;10.68;;;;;;;28.00;39.28;92568.34;5039696;28;20244;-70
2022/08/16 10:32:36;;;;;;;11.27;10.23;;;;;;;27.91;37.89;92572.56;5037343;28;20215;-68
2022/08/16 10:35:02;;;;;;;10.85;9.95;;;;;;;27.87;39.73;92577.16;5035478;28;20222;-68
2022/08/16 10:37:28;;;;;;;11.30;10.43;;;;;;;27.87;40.46;92577.97;5034900;28;20199;-68
2022/08/16 10:39:53;;;;;;;10.85;9.95;;;;;;;27.78;40.06;92584.84;5037238;28;20365;-69
2022/08/16 10:42:21;;;;;;;10.95;10.15;;;;;;;27.63;37.13;92578.72;5036667;28;20217;-69
2022/08/16 10:44:47;;;;;;;10.80;9.90;;;;;;;27.85;40.99;92579.47;5035235;28;20230;-68
2022/08/16 10:47:12;;;;;;;10.35;9.52;;;;;;;28.01;39.25;92571.78;5040189;28;20201;-68
2022/08/16 10:49:38;;;;;;;9.77;9.07;;;;;;;28.46;36.93;92576.25;5037490;28;20229;-67
2022/08/16 10:52:03;;;;;;;10.30;9.50;;;;;;;28.80;35.28;92576.50;5040146;28;20194;-68
2022/08/16 10:54:30;;;;;;;9.82;9.13;;;;;;;28.90;36.45;92578.38;5039464;28;20214;-68
2022/08/16 10:57:00;;;;;;;10.70;9.90;;;;;;;29.18;36.14;92575.56;5038073;28;20194;-69
2022/08/16 10:59:27;;;;;;;12.07;10.93;;;;;;;28.92;36.68;92571.44;5040240;28;20255;-68
2022/08/16 11:01:52;;;;;;;9.93;9.23;;;;;;;28.73;35.88;92569.28;5037873;28;21218;-69
2022/08/16 11:04:17;;;;;;;9.13;8.52;;;;;;;28.50;36.61;92573.59;5041778;28;20310;-68
2022/08/16 11:06:43;;;;;;;9.45;8.65;;;;;;;28.05;36.07;92578.69;5042876;28;20226;-69
2022/08/16 11:09:08;;;;;;;9.70;8.80;;;;;;;27.92;37.73;92574.13;5042100;28;20228;-68
2022/08/16 11:11:34;;;;;;;10.00;9.20;;;;;;;28.15;37.67;92580.59;5038411;28;20212;-69
2022/08/16 11:13:59;;;;;;;9.93;9.23;;;;;;;28.40;36.82;92577.81;5038883;28;20231;-69
2022/08/16 11:16:27;;;;;;;10.15;9.38;;;;;;;28.54;35.54;92571.66;5041429;28;20197;-68